Time,TemperatureF,DewpointF,PressureIn,WindDirection,WindDirectionDegrees,WindSpeedMPH,WindSpeedGustMPH,Humidity,HourlyPrecipIn,Conditions,Clouds,dailyrainin,SolarRadiationWatts/m^2,SoftwareType,DateUTC
2013-05-23 00:02:00,74.0,56.0,-100.00,ESE,122,9.0,13.0,53,0.00,,,0.00,0.000000,,2013-05-23 05:02:00,
2013-05-23 00:32:00,74.0,57.0,-100.00,ESE,123,10.0,17.0,56,0.00,,,0.00,0.000000,,2013-05-23 05:32:00,
2013-05-23 00:43:00,74.0,57.0,-100.00,ESE,123,10.0,17.0,56,0.00,,,0.00,0.000000,,2013-05-23 05:43:00,
2013-05-23 00:52:00,74.0,57.0,-100.00,ESE,123,10.0,17.0,56,0.00,,,0.00,0.000000,,2013-05-23 05:52:00,
2013-05-23 01:02:00,74.0,57.0,-100.00,ESE,123,10.0,17.0,56,0.00,,,0.00,0.000000,,2013-05-23 06:02:00,
2013-05-23 01:32:00,73.0,60.0,-100.00,SE,129,11.0,17.0,63,0.00,,,0.00,0.000000,,2013-05-23 06:32:00,
2013-05-23 01:42:00,73.0,60.0,-100.00,SE,129,11.0,17.0,63,0.00,,,0.00,0.000000,,2013-05-23 06:42:00,
2013-05-23 01:52:00,73.0,60.0,-100.00,SE,129,11.0,17.0,63,0.00,,,0.00,0.000000,,2013-05-23 06:52:00,
2013-05-23 02:02:00,73.0,60.0,-100.00,SE,129,11.0,17.0,63,0.00,,,0.00,0.000000,,2013-05-23 07:02:00,
2013-05-23 02:32:00,72.0,59.0,-100.00,SE,137,9.0,14.0,64,0.00,,,0.00,0.000000,,2013-05-23 07:32:00,
2013-05-23 02:42:00,72.0,59.0,-100.00,SE,137,9.0,14.0,64,0.00,,,0.00,0.000000,,2013-05-23 07:42:00,
2013-05-23 02:59:00,72.0,59.0,-100.00,SE,137,9.0,14.0,64,0.00,,,0.00,0.000000,,2013-05-23 07:59:00,
2013-05-23 03:32:00,72.0,62.0,-100.00,SE,138,10.0,17.0,70,0.00,,,0.00,0.000000,,2013-05-23 08:32:00,
2013-05-23 03:42:00,72.0,62.0,-100.00,SE,138,10.0,17.0,70,0.00,,,0.00,0.000000,,2013-05-23 08:42:00,
2013-05-23 03:52:00,72.0,62.0,-100.00,SE,138,10.0,17.0,70,0.00,,,0.00,0.000000,,2013-05-23 08:52:00,
2013-05-23 04:01:00,72.0,62.0,-100.00,SE,138,10.0,17.0,70,0.00,,,0.00,0.000000,,2013-05-23 09:01:00,
2013-05-23 04:33:00,72.0,65.0,-100.00,ESE,117,5.0,14.0,80,0.00,,,0.00,0.000000,,2013-05-23 09:33:00,
2013-05-23 04:42:00,72.0,65.0,-100.00,ESE,117,5.0,14.0,80,0.00,,,0.00,0.000000,,2013-05-23 09:42:00,
2013-05-23 04:53:00,72.0,65.0,-100.00,ESE,117,5.0,14.0,80,0.00,,,0.00,0.000000,,2013-05-23 09:53:00,
2013-05-23 05:02:00,72.0,65.0,-100.00,ESE,117,5.0,14.0,80,0.00,,,0.00,0.000000,,2013-05-23 10:02:00,
2013-05-23 05:32:00,71.0,67.0,-100.00,ESE,117,5.0,8.0,87,0.00,,,0.00,0.000000,,2013-05-23 10:32:00,
2013-05-23 05:42:00,71.0,67.0,-100.00,ESE,117,5.0,8.0,87,0.00,,,0.00,0.000000,,2013-05-23 10:42:00,
2013-05-23 05:52:00,71.0,67.0,-100.00,ESE,117,5.0,8.0,87,0.00,,,0.00,0.000000,,2013-05-23 10:52:00,
2013-05-23 06:02:00,71.0,67.0,-100.00,ESE,117,5.0,8.0,87,0.00,,,0.00,0.000000,,2013-05-23 11:02:00,
2013-05-23 06:32:00,70.0,68.0,-100.00,ESE,122,3.0,9.0,92,0.00,,,0.00,0.000000,,2013-05-23 11:32:00,
2013-05-23 06:42:00,70.0,68.0,-100.00,ESE,122,3.0,9.0,92,0.00,,,0.00,0.000000,,2013-05-23 11:42:00,
2013-05-23 06:52:00,70.0,68.0,-100.00,ESE,122,3.0,9.0,92,0.00,,,0.00,0.000000,,2013-05-23 11:52:00,
2013-05-23 07:01:00,70.0,68.0,-100.00,ESE,122,3.0,9.0,92,0.00,,,0.00,0.000000,,2013-05-23 12:01:00,
2013-05-23 07:32:00,71.0,69.0,-100.00,SE,140,5.0,8.0,93,0.00,,,0.00,13.000000,,2013-05-23 12:32:00,
2013-05-23 07:42:00,71.0,69.0,-100.00,SE,140,5.0,8.0,93,0.00,,,0.00,13.000000,,2013-05-23 12:42:00,
2013-05-23 07:52:00,71.0,69.0,-100.00,SE,140,5.0,8.0,93,0.00,,,0.00,13.000000,,2013-05-23 12:52:00,
2013-05-23 08:01:00,71.0,69.0,-100.00,SE,140,5.0,8.0,93,0.00,,,0.00,13.000000,,2013-05-23 13:01:00,
2013-05-23 08:32:00,74.0,71.0,-100.00,SSE,158,7.0,12.0,89,0.00,,,-99.99,131.000000,,2013-05-23 13:32:00,
2013-05-23 08:42:00,74.0,71.0,-100.00,SSE,158,7.0,12.0,89,0.00,,,-99.99,131.000000,,2013-05-23 13:42:00,
2013-05-23 08:52:00,74.0,71.0,-100.00,SSE,158,7.0,12.0,89,0.00,,,-99.99,131.000000,,2013-05-23 13:52:00,
2013-05-23 09:01:00,74.0,71.0,-100.00,SSE,158,7.0,12.0,89,0.00,,,-99.99,131.000000,,2013-05-23 14:01:00,
2013-05-23 09:32:00,79.0,71.0,-100.00,South,186,9.0,16.0,77,0.00,,,0.00,346.000000,,2013-05-23 14:32:00,
2013-05-23 09:42:00,79.0,71.0,-100.00,South,186,9.0,16.0,77,0.00,,,0.00,346.000000,,2013-05-23 14:42:00,
2013-05-23 09:52:00,79.0,71.0,-100.00,South,186,9.0,16.0,77,0.00,,,0.00,346.000000,,2013-05-23 14:52:00,
2013-05-23 10:01:00,79.0,71.0,-100.00,South,186,9.0,16.0,77,0.00,,,0.00,346.000000,,2013-05-23 15:01:00,
2013-05-23 10:33:00,84.0,71.0,-100.00,South,172,10.0,15.0,65,0.00,,,0.00,595.000000,,2013-05-23 15:33:00,
2013-05-23 10:43:00,84.0,71.0,-100.00,South,172,10.0,15.0,65,0.00,,,0.00,595.000000,,2013-05-23 15:43:00,
2013-05-23 10:53:00,84.0,71.0,-100.00,South,172,10.0,15.0,65,0.00,,,0.00,595.000000,,2013-05-23 15:53:00,
2013-05-23 11:03:00,84.0,71.0,-100.00,South,172,10.0,15.0,65,0.00,,,0.00,595.000000,,2013-05-23 16:03:00,
2013-05-23 11:34:00,84.0,67.0,-100.00,SE,125,8.0,15.0,56,0.00,,,0.00,660.000000,,2013-05-23 16:34:00,
2013-05-23 11:43:00,84.0,67.0,-100.00,SE,125,8.0,15.0,56,0.00,,,0.00,660.000000,,2013-05-23 16:43:00,
2013-05-23 11:52:00,84.0,67.0,-100.00,SE,125,8.0,15.0,56,0.00,,,0.00,660.000000,,2013-05-23 16:52:00,
2013-05-23 12:03:00,84.0,67.0,-100.00,SE,125,8.0,15.0,56,0.00,,,0.00,660.000000,,2013-05-23 17:03:00,
2013-05-23 12:33:00,85.0,69.0,-100.00,East,88,13.0,17.0,58,0.00,,,0.00,570.000000,,2013-05-23 17:33:00,
2013-05-23 12:43:00,85.0,69.0,-100.00,East,88,13.0,17.0,58,0.00,,,0.00,570.000000,,2013-05-23 17:43:00,
2013-05-23 12:53:00,85.0,69.0,-100.00,East,88,13.0,17.0,58,0.00,,,0.00,570.000000,,2013-05-23 17:53:00,
2013-05-23 13:01:00,85.0,69.0,-100.00,East,88,13.0,17.0,58,0.00,,,0.00,570.000000,,2013-05-23 18:01:00,
2013-05-23 13:32:00,86.0,69.0,-100.00,East,95,13.0,22.0,57,0.00,,,0.00,861.000000,,2013-05-23 18:32:00,
2013-05-23 13:42:00,86.0,69.0,-100.00,East,95,13.0,22.0,57,0.00,,,0.00,861.000000,,2013-05-23 18:42:00,
2013-05-23 13:52:00,86.0,69.0,-100.00,East,95,13.0,22.0,57,0.00,,,0.00,861.000000,,2013-05-23 18:52:00,
2013-05-23 14:01:00,86.0,69.0,-100.00,East,95,13.0,22.0,57,0.00,,,0.00,861.000000,,2013-05-23 19:01:00,
2013-05-23 14:32:00,87.0,71.0,-100.00,ESE,108,13.0,22.0,59,0.00,,,0.00,820.000000,,2013-05-23 19:32:00,
2013-05-23 14:42:00,87.0,71.0,-100.00,ESE,108,13.0,22.0,59,0.00,,,0.00,820.000000,,2013-05-23 19:42:00,
2013-05-23 14:52:00,87.0,71.0,-100.00,ESE,108,13.0,22.0,59,0.00,,,0.00,820.000000,,2013-05-23 19:52:00,
2013-05-23 15:02:00,87.0,71.0,-100.00,ESE,108,13.0,22.0,59,0.00,,,0.00,820.000000,,2013-05-23 20:02:00,
2013-05-23 15:32:00,88.0,68.0,-100.00,ESE,119,15.0,25.0,52,0.00,,,0.00,1034.000000,,2013-05-23 20:32:00,
2013-05-23 15:42:00,88.0,68.0,-100.00,ESE,119,15.0,25.0,52,0.00,,,0.00,1034.000000,,2013-05-23 20:42:00,
2013-05-23 15:52:00,88.0,68.0,-100.00,ESE,119,15.0,25.0,52,0.00,,,0.00,1034.000000,,2013-05-23 20:52:00,
2013-05-23 16:01:00,88.0,68.0,-100.00,ESE,119,15.0,25.0,52,0.00,,,0.00,1034.000000,,2013-05-23 21:01:00,
2013-05-23 16:33:00,89.0,67.0,-100.00,ESE,110,13.0,22.0,49,0.00,,,0.00,803.000000,,2013-05-23 21:33:00,
2013-05-23 16:43:00,89.0,67.0,-100.00,ESE,110,13.0,22.0,49,0.00,,,0.00,803.000000,,2013-05-23 21:43:00,
2013-05-23 16:53:00,89.0,67.0,-100.00,ESE,110,13.0,22.0,49,0.00,,,0.00,803.000000,,2013-05-23 21:53:00,
2013-05-23 17:03:00,89.0,67.0,-100.00,ESE,110,13.0,22.0,49,0.00,,,0.00,803.000000,,2013-05-23 22:03:00,
2013-05-23 17:33:00,86.0,66.0,-100.00,ESE,123,13.0,21.0,52,0.00,,,0.00,432.000000,,2013-05-23 22:33:00,
2013-05-23 17:42:00,86.0,66.0,-100.00,ESE,123,13.0,21.0,52,0.00,,,0.00,432.000000,,2013-05-23 22:42:00,
2013-05-23 17:52:00,86.0,66.0,-100.00,ESE,123,13.0,21.0,52,0.00,,,0.00,432.000000,,2013-05-23 22:52:00,
2013-05-23 18:01:00,86.0,66.0,-100.00,ESE,123,13.0,21.0,52,0.00,,,0.00,432.000000,,2013-05-23 23:01:00,
2013-05-23 18:32:00,83.0,66.0,-100.00,ESE,109,10.0,21.0,57,0.00,,,0.00,165.000000,,2013-05-23 23:32:00,
2013-05-23 18:42:00,83.0,66.0,-100.00,ESE,109,10.0,21.0,57,0.00,,,0.00,165.000000,,2013-05-23 23:42:00,
2013-05-23 18:52:00,83.0,66.0,-100.00,ESE,109,10.0,21.0,57,0.00,,,0.00,165.000000,,2013-05-23 23:52:00,
2013-05-23 19:01:00,83.0,66.0,-100.00,ESE,109,10.0,21.0,57,0.00,,,0.00,165.000000,,2013-05-24 00:01:00,
2013-05-23 19:32:00,82.0,68.0,-100.00,NE,40,7.0,16.0,62,0.00,,,0.00,16.000000,,2013-05-24 00:32:00,
2013-05-23 19:42:00,82.0,68.0,-100.00,NE,40,7.0,16.0,62,0.00,,,0.00,16.000000,,2013-05-24 00:42:00,
2013-05-23 19:52:00,82.0,68.0,-100.00,NE,40,7.0,16.0,62,0.00,,,0.00,16.000000,,2013-05-24 00:52:00,
2013-05-23 20:01:00,82.0,68.0,-100.00,NE,40,7.0,16.0,62,0.00,,,0.00,16.000000,,2013-05-24 01:01:00,
2013-05-23 20:32:00,80.0,68.0,-100.00,East,86,9.0,16.0,67,0.00,,,0.00,2.000000,,2013-05-24 01:32:00,
2013-05-23 20:42:00,80.0,68.0,-100.00,East,86,9.0,16.0,67,0.00,,,0.00,2.000000,,2013-05-24 01:42:00,
2013-05-23 20:52:00,80.0,68.0,-100.00,East,86,9.0,16.0,67,0.00,,,0.00,2.000000,,2013-05-24 01:52:00,
2013-05-23 21:01:00,80.0,68.0,-100.00,East,86,9.0,16.0,67,0.00,,,0.00,2.000000,,2013-05-24 02:01:00,
2013-05-23 21:32:00,79.0,68.0,-100.00,ESE,105,6.0,14.0,70,0.00,,,0.00,0.000000,,2013-05-24 02:32:00,
2013-05-23 21:42:00,79.0,68.0,-100.00,ESE,105,6.0,14.0,70,0.00,,,0.00,0.000000,,2013-05-24 02:42:00,
2013-05-23 21:52:00,79.0,68.0,-100.00,ESE,105,6.0,14.0,70,0.00,,,0.00,0.000000,,2013-05-24 02:52:00,
2013-05-23 22:02:00,79.0,68.0,-100.00,ESE,105,6.0,14.0,70,0.00,,,0.00,0.000000,,2013-05-24 03:02:00,
2013-05-23 22:33:00,77.0,68.0,-100.00,SSW,198,7.0,10.0,75,0.00,,,0.00,0.000000,,2013-05-24 03:33:00,
2013-05-23 22:42:00,77.0,68.0,-100.00,SSW,198,7.0,10.0,75,0.00,,,0.00,0.000000,,2013-05-24 03:42:00,
2013-05-23 22:53:00,77.0,68.0,-100.00,SSW,198,7.0,10.0,75,0.00,,,0.00,0.000000,,2013-05-24 03:53:00,
2013-05-23 23:03:00,77.0,68.0,-100.00,SSW,198,7.0,10.0,75,0.00,,,0.00,0.000000,,2013-05-24 04:03:00,
2013-05-23 23:33:00,78.0,69.0,-100.00,South,190,16.0,26.0,74,0.00,,,0.00,0.000000,,2013-05-24 04:33:00,
2013-05-23 23:42:00,78.0,69.0,-100.00,South,190,16.0,26.0,74,0.00,,,0.00,0.000000,,2013-05-24 04:42:00,
2013-05-23 23:53:00,78.0,69.0,-100.00,South,190,16.0,26.0,74,0.00,,,0.00,0.000000,,2013-05-24 04:53:00,